Time;durP1;ratioP1;P1;durP2;ratioP2;P2;SDS_P1;SDS_P2;PMS_P1;PMS_P2;Temp;Humidity;BMP_temperature;BMP_pressure;BME280_temperature;BME280_humidity;BME280_pressure;Samples;Min_cycle;Max_cycle;Signal;HPM_P1;HPM_P2
2021/12/01 00:01:42;;;;;;;0.47;0.30;;;;;;;20.86;35.07;96086.69;5135524;27;20038;-64
2021/12/01 00:04:08;;;;;;;0.47;0.45;;;;;;;20.84;34.82;96094.19;5135251;27;20042;-71
2021/12/01 00:06:35;;;;;;;0.60;0.47;;;;;;;20.84;34.66;96100.41;5132936;27;20034;-69
2021/12/01 00:09:01;;;;;;;0.55;0.28;;;;;;;20.82;34.65;96091.78;5131247;27;20035;-72
2021/12/01 00:11:27;;;;;;;0.68;0.28;;;;;;;20.80;34.76;96103.91;5141604;27;20035;-69
2021/12/01 00:13:52;;;;;;;1.40;0.50;;;;;;;20.83;34.89;96103.34;5133751;27;20546;-70
2021/12/01 00:16:18;;;;;;;2.28;1.08;;;;;;;20.82;34.67;96112.47;5134625;27;20440;-70
2021/12/01 00:18:44;;;;;;;4.57;0.45;;;;;;;20.80;34.08;96114.66;5132578;27;20062;-71
2021/12/01 00:21:09;;;;;;;2.38;0.98;;;;;;;20.76;33.72;96109.00;5125981;27;20035;-71
2021/12/01 00:23:35;;;;;;;1.85;0.50;;;;;;;20.71;33.46;96112.47;5121039;27;20089;-71
2021/12/01 00:26:02;;;;;;;2.50;0.50;;;;;;;20.65;33.54;96105.50;5124544;27;20625;-71
2021/12/01 00:28:27;;;;;;;0.80;0.40;;;;;;;20.58;33.65;96108.47;5124828;27;20070;-71
2021/12/01 00:30:53;;;;;;;0.25;0.15;;;;;;;20.55;33.38;96125.13;5122571;27;20463;-74
2021/12/01 00:33:22;;;;;;;0.95;0.52;;;;;;;20.50;33.27;96125.09;5118787;27;20030;-72
2021/12/01 00:35:50;;;;;;;0.95;0.52;;;;;;;20.47;33.63;96127.53;5127161;27;20104;-71
2021/12/01 00:38:16;;;;;;;0.75;0.20;;;;;;;20.43;33.15;96122.69;5127993;27;20110;-70
2021/12/01 00:40:42;;;;;;;0.43;0.30;;;;;;;20.41;33.20;96116.78;5119641;27;20550;-74
2021/12/01 00:43:15;;;;;;;4.95;0.55;;;;;;;20.39;33.50;96126.97;5121508;27;20027;-73
2021/12/01 00:45:46;;;;;;;3.08;0.52;;;;;;;20.37;33.36;96134.50;5120974;27;20045;-72
2021/12/01 00:48:12;;;;;;;0.70;0.35;;;;;;;20.33;33.21;96128.06;5117057;27;20122;-73
2021/12/01 00:50:37;;;;;;;1.13;0.55;;;;;;;20.31;33.31;96127.53;5124531;27;20537;-71
2021/12/01 00:53:08;;;;;;;0.57;0.40;;;;;;;20.30;33.28;96123.22;5126310;27;20035;-71
2021/12/01 00:55:34;;;;;;;1.13;0.50;;;;;;;20.29;33.25;96129.66;5125037;27;20045;-71
2021/12/01 00:58:00;;;;;;;1.73;0.43;;;;;;;20.27;33.32;96115.69;5129307;27;20268;-71
2021/12/01 01:00:28;;;;;;;0.20;0.20;;;;;;;20.25;33.29;96118.66;5125329;27;20035;-72
2021/12/01 01:02:56;;;;;;;4.85;0.32;;;;;;;20.25;33.25;96120.53;5118691;27;20092;-72
2021/12/01 01:05:23;;;;;;;1.27;0.68;;;;;;;20.25;33.17;96121.34;5121222;27;20035;-71
2021/12/01 01:07:49;;;;;;;0.65;0.40;;;;;;;20.23;33.23;96141.44;5122209;27;20035;-71
2021/12/01 01:19:05;;;;;;;0.75;0.32;;;;;;;20.19;33.12;96135.03;5067306;28;20032;-73
2021/12/01 01:21:35;;;;;;;0.60;0.28;;;;;;;20.18;33.03;96141.47;5065105;28;20064;-72
2021/12/01 01:24:02;;;;;;;0.98;0.30;;;;;;;20.18;33.18;96128.84;5079336;27;20318;-71
2021/12/01 01:26:28;;;;;;;0.85;0.20;;;;;;;20.19;33.13;96143.09;5114829;27;20031;-72
2021/12/01 01:28:54;;;;;;;0.57;0.47;;;;;;;20.19;33.13;96135.03;5119890;27;20414;-72
2021/12/01 01:31:21;;;;;;;0.98;0.43;;;;;;;20.19;33.07;96135.03;5131890;27;20063;-71
2021/12/01 01:33:47;;;;;;;0.60;0.30;;;;;;;20.16;32.94;96130.19;5132751;27;20130;-73
2021/12/01 01:36:14;;;;;;;1.40;0.47;;;;;;;20.15;33.06;96142.78;5133546;27;20043;-72
2021/12/01 01:38:40;;;;;;;0.95;0.43;;;;;;;20.16;33.18;96140.94;5132492;27;20041;-71
2021/12/01 01:41:09;;;;;;;1.40;0.38;;;;;;;20.15;32.93;96139.31;5133539;27;20375;-72
2021/12/01 01:43:35;;;;;;;0.70;0.30;;;;;;;20.13;32.93;96140.38;5129903;27;20030;-72
2021/12/01 01:46:01;;;;;;;0.43;0.40;;;;;;;20.13;32.94;96145.75;5133611;27;20489;-73
2021/12/01 01:48:31;;;;;;;0.55;0.50;;;;;;;20.12;32.93;96144.13;5131378;27;20050;-72
2021/12/01 01:51:02;;;;;;;1.08;0.40;;;;;;;20.12;32.90;96146.81;5133904;27;20119;-73
2021/12/01 01:53:29;;;;;;;;;;;;;;;20.05;33.72;96140.09;5132028;27;20497;-73
2021/12/01 01:55:58;;;;;;;1.05;0.40;;;;;;;20.08;33.38;96153.00;5133045;27;19915;-73
2021/12/01 01:58:24;;;;;;;0.50;0.30;;;;;;;20.09;33.10;96154.59;5128905;27;20119;-73
2021/12/01 02:00:53;;;;;;;0.25;0.20;;;;;;;20.09;32.88;96150.03;5133190;27;20070;-72
2021/12/01 02:03:23;;;;;;;0.68;0.38;;;;;;;20.10;32.84;96153.53;5130367;27;20102;-73
2021/12/01 02:05:50;;;;;;;1.55;0.32;;;;;;;20.10;32.77;96157.00;5115358;27;20481;-73
2021/12/01 02:08:26;;;;;;;1.00;0.40;;;;;;;20.11;33.09;96157.84;5129937;27;20038;-72
2021/12/01 02:10:52;;;;;;;0.50;0.40;;;;;;;20.08;32.85;96164.50;5131455;27;20042;-72
2021/12/01 02:13:19;;;;;;;0.25;0.20;;;;;;;20.07;33.11;96160.22;5130459;27;20046;-72
2021/12/01 02:15:47;;;;;;;1.13;0.47;;;;;;;20.07;32.92;96156.75;5125919;27;20146;-72
2021/12/01 02:18:12;;;;;;;0.40;0.30;;;;;;;20.07;33.16;96168.25;5132492;28;20035;-72
2021/12/01 02:20:39;;;;;;;0.35;0.20;;;;;;;20.05;33.13;96174.97;5131692;27;20122;-71
2021/12/01 02:23:05;;;;;;;0.75;0.20;;;;;;;20.04;33.34;96168.00;5127276;27;20489;-72
2021/12/01 02:25:30;;;;;;;0.47;0.40;;;;;;;20.03;33.25;96158.34;5132793;27;20069;-72
2021/12/01 02:27:56;;;;;;;0.32;0.30;;;;;;;20.06;33.00;96168.53;5129956;27;20039;-71
2021/12/01 02:30:23;;;;;;;0.45;0.30;;;;;;;20.08;32.94;96171.78;5133000;28;20040;-71
2021/12/01 02:32:50;;;;;;;1.08;0.32;;;;;;;20.07;33.09;96154.84;5132187;27;21120;-71
2021/12/01 02:35:16;;;;;;;0.50;0.30;;;;;;;20.07;32.95;96179.00;5133041;28;20485;-71
2021/12/01 02:37:42;;;;;;;0.73;0.40;;;;;;;20.06;33.25;96172.06;5132656;28;20037;-71
2021/12/01 02:40:08;;;;;;;1.45;0.40;;;;;;;20.06;33.05;96181.97;5130836;28;20043;-71
2021/12/01 02:42:33;;;;;;;0.32;0.30;;;;;;;20.04;33.27;96178.72;5131242;27;20031;-72
2021/12/01 02:44:59;;;;;;;0.52;0.50;;;;;;;20.05;32.82;96180.34;5132712;28;20035;-71
2021/12/01 02:47:26;;;;;;;0.60;0.35;;;;;;;20.03;33.05;96182.47;5129981;28;20238;-72
2021/12/01 02:49:54;;;;;;;1.70;0.50;;;;;;;20.04;33.12;96184.91;5132821;27;20125;-71
2021/12/01 02:52:22;;;;;;;0.98;0.35;;;;;;;20.03;32.93;96190.53;5128317;27;20035;-71
2021/12/01 02:54:48;;;;;;;0.60;0.30;;;;;;;20.02;33.23;96187.06;5132719;27;20066;-71
2021/12/01 02:57:14;;;;;;;0.25;0.20;;;;;;;20.03;33.13;96185.16;5131006;27;20042;-71
2021/12/01 02:59:40;;;;;;;0.65;0.30;;;;;;;20.03;33.07;96187.84;5133974;27;20035;-71
2021/12/01 03:02:07;;;;;;;0.88;0.40;;;;;;;20.00;32.88;96186.50;5134283;27;20417;-71
2021/12/01 03:04:34;;;;;;;0.73;0.45;;;;;;;20.00;32.79;96189.19;5136135;27;20460;-72
2021/12/01 03:07:01;;;;;;;1.05;0.80;;;;;;;20.02;32.93;96170.97;5111479;28;20058;-71
2021/12/01 03:09:26;;;;;;;1.00;0.40;;;;;;;20.02;32.88;96178.19;5116173;28;20114;-72
2021/12/01 03:11:52;;;;;;;0.85;0.50;;;;;;;20.02;32.73;96183.56;5128438;27;20638;-72
2021/12/01 03:14:19;;;;;;;0.45;0.38;;;;;;;20.03;33.05;96195.91;5103101;27;20039;-72
2021/12/01 03:16:48;;;;;;;1.08;0.40;;;;;;;20.01;32.83;96195.34;5125345;27;20030;-73
2021/12/01 03:19:14;;;;;;;0.50;0.30;;;;;;;20.01;33.01;96198.84;5131323;27;20076;-72
2021/12/01 03:21:41;;;;;;;0.32;0.32;;;;;;;20.01;32.94;96204.22;5133894;27;20032;-72
2021/12/01 03:24:07;;;;;;;0.50;0.38;;;;;;;20.00;33.24;96207.97;5136038;27;20129;-73
2021/12/01 03:26:33;;;;;;;0.30;0.30;;;;;;;20.00;33.13;96199.13;5136310;27;20035;-72
2021/12/01 03:29:00;;;;;;;0.40;0.30;;;;;;;20.01;33.21;96198.03;5118610;27;20043;-73
2021/12/01 03:31:26;;;;;;;0.38;0.38;;;;;;;20.02;33.23;96197.78;5124574;27;20054;-73
2021/12/01 03:33:52;;;;;;;0.95;0.43;;;;;;;20.01;33.06;96196.19;5135535;27;20513;-72
2021/12/01 03:36:18;;;;;;;0.35;0.30;;;;;;;20.01;32.86;96198.84;5135648;27;20039;-72
2021/12/01 03:38:44;;;;;;;0.55;0.35;;;;;;;20.00;32.63;96194.56;5134626;27;20053;-72
2021/12/01 03:41:10;;;;;;;0.47;0.40;;;;;;;20.01;32.80;96190.00;5136184;27;20100;-72
2021/12/01 03:43:35;;;;;;;0.47;0.30;;;;;;;20.00;32.88;96199.94;5134618;27;20027;-72
2021/12/01 03:46:01;;;;;;;0.70;0.30;;;;;;;20.01;32.98;96190.81;5142856;27;20118;-72
2021/12/01 03:48:27;;;;;;;0.82;0.50;;;;;;;20.04;32.86;96200.19;5126542;27;20027;-71
2021/12/01 03:50:54;;;;;;;0.98;0.75;;;;;;;20.01;32.85;96198.84;5134761;27;20120;-73
2021/12/01 03:53:22;;;;;;;0.68;0.20;;;;;;;20.02;33.21;96197.78;5133504;27;20031;-72
2021/12/01 03:55:48;;;;;;;0.55;0.35;;;;;;;19.99;32.99;96202.88;5135832;27;20095;-73
2021/12/01 03:58:14;;;;;;;0.70;0.38;;;;;;;19.98;33.05;96204.75;5129768;27;20710;-73
2021/12/01 04:00:40;;;;;;;0.65;0.40;;;;;;;19.97;33.10;96195.09;5133364;27;20035;-71
2021/12/01 04:03:06;;;;;;;0.98;0.50;;;;;;;19.97;33.19;96205.81;5133522;27;20027;-72
2021/12/01 04:05:33;;;;;;;0.52;0.50;;;;;;;19.99;32.90;96202.88;5134422;27;20057;-72
2021/12/01 04:07:59;;;;;;;0.60;0.28;;;;;;;20.00;32.95;96201.81;5124339;27;20117;-74
2021/12/01 04:10:25;;;;;;;0.22;0.20;;;;;;;20.00;32.89;96205.28;5135329;27;20039;-72
2021/12/01 04:12:51;;;;;;;3.75;0.50;;;;;;;20.00;32.92;96210.66;5133204;27;20498;-74
2021/12/01 04:15:16;;;;;;;0.63;0.28;;;;;;;19.98;32.80;96218.16;5133535;27;20489;-73
2021/12/01 04:17:43;;;;;;;1.13;0.40;;;;;;;19.99;32.64;96216.31;5136577;27;20031;-73
2021/12/01 04:20:12;;;;;;;0.73;0.40;;;;;;;19.98;32.63;96220.84;5135255;27;20117;-73
2021/12/01 04:22:38;;;;;;;0.98;0.32;;;;;;;20.01;32.72;96219.50;5131397;27;20035;-73
2021/12/01 04:25:05;;;;;;;0.70;0.40;;;;;;;20.00;32.61;96216.03;5132389;27;20039;-74
2021/12/01 04:27:31;;;;;;;1.02;0.57;;;;;;;20.03;32.72;96212.00;5134538;27;20053;-74
2021/12/01 04:29:57;;;;;;;1.40;0.60;;;;;;;20.03;32.67;96214.69;5135507;27;20031;-72
2021/12/01 04:32:22;;;;;;;1.63;0.88;;;;;;;20.02;32.65;96216.56;5132600;27;20087;-73
2021/12/01 04:34:48;;;;;;;0.28;0.28;;;;;;;20.02;33.00;96224.63;5134200;27;20054;-73
2021/12/01 04:37:14;;;;;;;0.80;0.35;;;;;;;20.03;32.58;96233.47;5134341;27;20027;-73
2021/12/01 04:39:40;;;;;;;0.88;0.57;;;;;;;20.05;32.44;96225.97;5133268;27;20038;-74
2021/12/01 04:42:06;;;;;;;0.60;0.40;;;;;;;20.04;32.34;96235.91;5132611;27;20481;-73
2021/12/01 04:44:34;;;;;;;0.60;0.50;;;;;;;20.04;32.73;96235.09;5134047;27;20039;-72
2021/12/01 04:47:02;;;;;;;0.82;0.43;;;;;;;20.06;32.87;96224.91;5130477;27;20035;-71
2021/12/01 04:49:29;;;;;;;0.85;0.47;;;;;;;20.05;32.54;96228.66;5132314;27;20038;-73
2021/12/01 04:51:57;;;;;;;1.55;0.50;;;;;;;20.02;32.70;96235.34;5121235;27;20038;-72
2021/12/01 04:54:25;;;;;;;0.95;0.50;;;;;;;20.04;32.41;96235.09;5133546;27;20042;-73
2021/12/01 04:56:51;;;;;;;1.17;0.55;;;;;;;20.04;32.47;96230.53;5133965;27;20042;-73
2021/12/01 04:59:18;;;;;;;0.82;0.40;;;;;;;20.03;32.42;96230.78;5130709;27;20088;-71
2021/12/01 05:01:44;;;;;;;0.70;0.45;;;;;;;20.04;32.64;96246.66;5115772;27;20035;-71
2021/12/01 05:04:10;;;;;;;1.42;0.50;;;;;;;20.05;32.63;96247.44;5132789;27;20485;-72
2021/12/01 05:06:40;;;;;;;0.82;0.47;;;;;;;20.04;32.63;96254.69;5133397;27;20450;-72
2021/12/01 05:09:09;;;;;;;1.00;0.60;;;;;;;20.00;32.79;96244.75;5133653;27;20038;-71
2021/12/01 05:11:35;;;;;;;1.35;0.47;;;;;;;19.98;32.92;96250.38;5132196;27;20117;-73
2021/12/01 05:14:01;;;;;;;0.65;0.30;;;;;;;19.96;32.67;96257.88;5133364;27;20122;-71
2021/12/01 05:16:26;;;;;;;1.40;0.50;;;;;;;19.96;32.76;96257.88;5132516;27;20401;-72
2021/12/01 05:18:52;;;;;;;1.10;0.50;;;;;;;19.95;32.69;96266.97;5132293;27;20456;-73
2021/12/01 05:21:18;;;;;;;1.15;0.52;;;;;;;19.96;32.94;96268.59;5126829;27;20111;-73
2021/12/01 05:23:44;;;;;;;0.68;0.52;;;;;;;19.96;32.94;96268.59;5128908;27;20030;-72
2021/12/01 05:26:11;;;;;;;0.77;0.40;;;;;;;19.95;32.68;96280.41;5132707;27;20039;-72
2021/12/01 05:28:40;;;;;;;1.35;0.60;;;;;;;19.95;32.93;96288.44;5129817;27;20038;-73
2021/12/01 05:31:07;;;;;;;1.08;0.45;;;;;;;19.94;32.81;96286.84;5133496;27;20035;-72
2021/12/01 05:33:33;;;;;;;1.15;0.50;;;;;;;19.93;32.75;96285.22;5133296;27;20027;-71
2021/12/01 05:35:59;;;;;;;0.95;0.45;;;;;;;19.93;32.63;96283.34;5120119;27;20122;-71
2021/12/01 05:38:24;;;;;;;4.80;0.70;;;;;;;19.93;32.65;96295.94;5131503;27;20070;-71
2021/12/01 05:40:50;;;;;;;2.00;0.73;;;;;;;19.90;32.47;96288.44;5132420;27;20035;-71
2021/12/01 05:43:17;;;;;;;1.00;0.60;;;;;;;19.92;32.24;96299.72;5121018;27;20030;-74
2021/12/01 05:45:43;;;;;;;1.73;0.70;;;;;;;19.91;32.51;96296.22;5117415;27;20054;-71
2021/12/01 05:48:10;;;;;;;1.95;0.80;;;;;;;19.88;32.19;96296.72;5129667;27;20035;-72
2021/12/01 05:50:36;;;;;;;0.85;0.40;;;;;;;19.89;32.18;96305.59;5132798;27;20111;-73
2021/12/01 05:53:02;;;;;;;1.15;0.57;;;;;;;19.89;32.33;96305.59;5134855;27;20063;-72
2021/12/01 05:55:28;;;;;;;1.17;0.70;;;;;;;19.89;32.62;96306.41;5137787;27;20515;-72
2021/12/01 05:57:53;;;;;;;2.40;0.70;;;;;;;19.90;32.31;96302.66;5132526;27;20121;-71
2021/12/01 06:00:20;;;;;;;1.20;0.50;;;;;;;19.88;32.48;96299.41;5125473;27;20032;-72
2021/12/01 06:02:50;;;;;;;0.90;0.50;;;;;;;19.86;32.50;96314.94;5118831;27;20032;-72
2021/12/01 06:05:17;;;;;;;2.08;0.68;;;;;;;19.87;32.12;96313.09;5102041;28;20030;-72
2021/12/01 06:07:43;;;;;;;6.95;1.15;;;;;;;19.85;31.99;96317.88;5120018;27;20041;-73
2021/12/01 06:10:09;;;;;;;1.20;0.75;;;;;;;19.86;32.55;96311.47;5133261;27;20459;-71
2021/12/01 06:12:34;;;;;;;3.58;1.08;;;;;;;19.86;32.20;96319.50;5129388;27;20062;-70
2021/12/01 06:15:01;;;;;;;3.50;0.60;;;;;;;19.87;32.04;96330.00;5133393;28;20031;-72
2021/12/01 06:17:27;;;;;;;2.70;1.95;;;;;;;19.90;32.04;96321.44;5123580;28;20470;-71
2021/12/01 06:19:53;;;;;;;1.75;0.75;;;;;;;19.91;31.99;96335.66;5112878;28;20135;-71
2021/12/01 06:22:19;;;;;;;1.30;0.73;;;;;;;19.91;32.25;96328.41;5116529;28;20435;-71
2021/12/01 06:24:45;;;;;;;1.48;0.70;;;;;;;19.90;32.30;96326.78;5133293;28;20035;-71
2021/12/01 06:27:11;;;;;;;0.77;0.57;;;;;;;19.90;32.49;96342.91;5126547;28;20042;-73
2021/12/01 06:29:37;;;;;;;1.02;0.60;;;;;;;19.90;32.03;96334.84;5132871;28;20165;-71
2021/12/01 06:32:03;;;;;;;1.42;0.85;;;;;;;19.91;32.14;96335.66;5126676;28;20034;-73
2021/12/01 06:34:29;;;;;;;3.30;0.88;;;;;;;19.92;32.11;96326.56;5096124;28;20129;-73
2021/12/01 06:36:54;;;;;;;2.47;0.70;;;;;;;19.89;32.26;96335.91;5120897;27;20171;-73
2021/12/01 06:39:20;;;;;;;0.93;0.60;;;;;;;19.88;32.46;96342.34;5137218;27;20030;-73
2021/12/01 06:41:45;;;;;;;1.80;0.80;;;;;;;19.87;32.53;96339.94;5135357;27;20493;-72
2021/12/01 06:44:11;;;;;;;1.30;0.60;;;;;;;19.87;32.45;96342.63;5122087;27;20042;-72
2021/12/01 06:46:37;;;;;;;1.13;0.63;;;;;;;19.87;32.25;96337.25;5120120;27;20397;-72
2021/12/01 06:49:02;;;;;;;1.65;0.90;;;;;;;19.88;32.22;96349.59;5125806;27;20397;-72
2021/12/01 06:51:28;;;;;;;1.17;0.65;;;;;;;19.86;32.26;96344.44;5117523;27;20039;-72
2021/12/01 06:53:54;;;;;;;1.88;0.93;;;;;;;19.89;32.11;96356.59;5126951;27;20549;-73
2021/12/01 06:56:19;;;;;;;1.35;0.80;;;;;;;19.89;32.25;96354.69;5136996;27;20031;-73
2021/12/01 06:58:45;;;;;;;0.80;0.52;;;;;;;19.90;32.26;96364.34;5134820;27;20062;-73
2021/12/01 07:01:12;;;;;;;2.22;0.75;;;;;;;19.90;32.39;96363.56;5136691;27;20068;-73
2021/12/01 07:03:38;;;;;;;1.15;0.70;;;;;;;19.91;32.37;96371.34;5136146;27;20039;-73
2021/12/01 07:06:04;;;;;;;1.65;0.73;;;;;;;19.91;32.42;96378.59;5137072;27;20037;-74
2021/12/01 07:08:29;;;;;;;1.30;0.77;;;;;;;19.91;32.47;96382.06;5125087;27;20113;-74
2021/12/01 07:10:55;;;;;;;4.00;1.10;;;;;;;19.93;32.58;96381.81;5129789;27;20042;-72
2021/12/01 07:13:21;;;;;;;1.75;0.80;;;;;;;19.93;32.65;96390.69;5134746;27;20058;-74
2021/12/01 07:15:46;;;;;;;1.98;0.85;;;;;;;19.93;32.57;96387.16;5136681;27;20035;-71
2021/12/01 07:18:12;;;;;;;1.42;0.75;;;;;;;19.93;32.41;96384.50;5125628;27;20065;-72
2021/12/01 07:20:38;;;;;;;1.48;0.70;;;;;;;19.93;32.64;96376.44;5135942;27;20042;-71
2021/12/01 07:23:04;;;;;;;1.67;0.80;;;;;;;19.93;32.58;96389.84;5112053;27;20114;-72
2021/12/01 07:25:31;;;;;;;1.73;0.88;;;;;;;19.92;32.38;96388.28;5134059;27;20042;-70
2021/12/01 07:27:56;;;;;;;2.10;0.70;;;;;;;19.93;32.15;96400.59;5133230;27;20035;-68
2021/12/01 07:30:22;;;;;;;0.90;0.60;;;;;;;19.93;32.49;96400.59;5129023;27;20039;-70
2021/12/01 07:32:49;;;;;;;1.55;0.80;;;;;;;19.94;32.16;96407.56;5132776;27;20047;-70
2021/12/01 07:35:18;;;;;;;1.70;0.80;;;;;;;19.93;32.31;96408.63;5116870;27;20100;-70
2021/12/01 07:37:44;;;;;;;1.88;0.88;;;;;;;19.92;32.49;96412.41;5126228;27;20069;-72
2021/12/01 07:40:10;;;;;;;1.27;0.65;;;;;;;19.90;32.32;96411.88;5131233;27;20066;-72
2021/12/01 07:42:36;;;;;;;1.45;0.82;;;;;;;19.89;32.34;96413.72;5131334;27;20039;-71
2021/12/01 07:45:05;;;;;;;1.48;0.70;;;;;;;19.91;32.59;96410.78;5135206;27;20059;-72
2021/12/01 07:47:31;;;;;;;3.30;1.15;;;;;;;19.91;32.79;96425.00;5124569;27;20039;-71
2021/12/01 07:49:56;;;;;;;2.50;1.00;;;;;;;19.89;32.57;96426.34;5123931;27;21429;-71
2021/12/01 07:52:22;;;;;;;2.75;0.80;;;;;;;19.89;32.52;96432.50;5133586;27;20122;-71
2021/12/01 07:54:48;;;;;;;1.45;0.82;;;;;;;19.89;32.54;96421.78;5119769;27;20123;-71
2021/12/01 07:57:14;;;;;;;1.98;1.00;;;;;;;19.91;32.36;96424.22;5133183;27;20134;-71
2021/12/01 07:59:40;;;;;;;1.45;0.80;;;;;;;19.94;32.28;96431.72;5132592;27;20031;-71
2021/12/01 08:02:05;;;;;;;2.38;0.77;;;;;;;19.96;32.49;96432.28;5129357;27;20037;-72
2021/12/01 08:04:31;;;;;;;1.80;0.68;;;;;;;19.97;32.30;96441.94;5133776;27;20026;-72
2021/12/01 08:06:57;;;;;;;1.23;0.77;;;;;;;19.95;31.99;96439.53;5134940;27;20031;-71
2021/12/01 08:09:24;;;;;;;1.83;1.00;;;;;;;19.95;32.41;96436.03;5121529;27;20545;-71
2021/12/01 08:11:50;;;;;;;3.30;1.27;;;;;;;19.93;32.32;96443.53;5126817;27;20375;-71
2021/12/01 08:14:16;;;;;;;0.68;0.52;;;;;;;19.91;32.36;96446.47;5133375;27;20049;-71
2021/12/01 08:16:42;;;;;;;1.65;0.90;;;;;;;19.90;32.31;96446.75;5131274;27;20054;-71
2021/12/01 08:19:07;;;;;;;0.95;0.70;;;;;;;19.90;32.46;96452.09;5114859;28;20048;-72
2021/12/01 08:21:34;;;;;;;1.73;0.88;;;;;;;19.90;32.44;96452.09;5119401;27;20402;-73
2021/12/01 08:23:59;;;;;;;3.67;0.80;;;;;;;19.89;32.59;96450.50;5133047;27;20083;-71
2021/12/01 08:26:25;;;;;;;1.05;0.68;;;;;;;19.89;32.72;96450.50;5135252;27;20478;-71
2021/12/01 08:28:51;;;;;;;1.00;0.60;;;;;;;19.88;32.61;96463.09;5122313;27;20031;-71
2021/12/01 08:31:18;;;;;;;2.60;0.77;;;;;;;19.89;32.47;96458.53;5124507;27;20045;-73
2021/12/01 08:33:45;;;;;;;1.48;0.70;;;;;;;19.89;32.53;96458.53;5134447;27;20033;-71
2021/12/01 08:36:12;;;;;;;1.67;0.77;;;;;;;19.87;32.35;96457.97;5134999;27;20088;-71
2021/12/01 08:38:39;;;;;;;1.35;1.02;;;;;;;19.86;32.58;96459.81;5131257;27;20046;-71
2021/12/01 08:41:06;;;;;;;2.15;0.90;;;;;;;19.86;32.21;96457.13;5126797;27;20565;-72
2021/12/01 08:43:33;;;;;;;0.90;0.60;;;;;;;19.87;32.35;96452.63;5132768;27;20435;-70
2021/12/01 08:45:59;;;;;;;2.67;0.95;;;;;;;19.88;32.34;96471.13;5121893;27;20080;-71
2021/12/01 08:48:25;;;;;;;3.97;0.90;;;;;;;19.90;33.05;96460.94;5133904;27;20099;-70
2021/12/01 08:50:51;;;;;;;2.58;0.90;;;;;;;19.94;33.38;96463.91;5133020;27;20489;-70
2021/12/01 08:53:16;;;;;;;1.67;1.13;;;;;;;19.98;33.20;96456.97;5138464;27;20473;-70
2021/12/01 08:55:44;;;;;;;3.15;0.80;;;;;;;20.00;33.21;96456.75;5154929;27;20428;-70
2021/12/01 08:58:13;;;;;;;2.42;1.35;;;;;;;20.00;33.63;96462.91;5139891;27;20027;-69
2021/12/01 09:00:44;;;;;;;8.05;1.42;;;;;;;20.05;33.48;96470.19;5130648;27;20182;-72
2021/12/01 09:03:11;;;;;;;4.50;0.90;;;;;;;20.11;33.20;96469.97;5128158;27;20031;-68
2021/12/01 09:05:36;;;;;;;3.00;1.40;;;;;;;20.18;33.17;96474.31;5127536;27;20066;-69
2021/12/01 09:08:02;;;;;;;3.17;1.50;;;;;;;20.21;33.37;96473.78;5131390;27;20114;-70
2021/12/01 09:10:28;;;;;;;4.38;1.80;;;;;;;20.23;33.61;96477.00;5133420;27;20035;-66
2021/12/01 09:12:53;;;;;;;6.88;2.17;;;;;;;20.27;33.66;96478.13;5130585;27;20546;-69
2021/12/01 09:15:19;;;;;;;4.82;2.13;;;;;;;20.28;33.91;96477.06;5133712;27;20041;-69
2021/12/01 09:17:45;;;;;;;8.45;2.22;;;;;;;20.30;33.93;96476.78;5127527;27;20082;-69
2021/12/01 09:20:12;;;;;;;4.75;2.38;;;;;;;20.32;33.79;96486.22;5130694;27;20037;-70
2021/12/01 09:22:38;;;;;;;6.05;2.92;;;;;;;20.31;33.90;96483.75;5127297;27;20035;-69
2021/12/01 09:25:04;;;;;;;5.82;2.53;;;;;;;20.33;33.86;96463.66;5121834;27;20121;-69
2021/12/01 09:27:30;;;;;;;8.07;3.15;;;;;;;20.38;34.01;96479.00;5132870;27;20035;-69
2021/12/01 09:29:55;;;;;;;5.43;2.85;;;;;;;20.40;34.25;96487.59;5132923;27;20076;-70
2021/12/01 09:32:21;;;;;;;4.70;2.30;;;;;;;20.39;34.29;96484.09;5131290;27;20034;-70
2021/12/01 09:34:46;;;;;;;6.13;2.75;;;;;;;20.39;34.30;96491.34;5127081;27;20046;-70
2021/12/01 09:37:12;;;;;;;9.07;3.67;;;;;;;20.39;34.44;96497.53;5121417;27;20039;-70
2021/12/01 09:39:38;;;;;;;2.72;2.00;;;;;;;20.38;34.00;96506.63;5131907;27;20248;-70
2021/12/01 09:42:04;;;;;;;5.20;2.45;;;;;;;20.37;34.24;96498.84;5130828;27;20029;-70
2021/12/01 09:44:31;;;;;;;4.60;2.38;;;;;;;20.40;34.15;96493.78;5129613;27;20397;-69
2021/12/01 09:46:58;;;;;;;4.07;2.33;;;;;;;20.42;33.50;96496.22;5133130;27;20075;-70
2021/12/01 09:49:23;;;;;;;8.50;2.03;;;;;;;20.44;34.10;96510.16;5132941;27;20059;-68
2021/12/01 09:51:49;;;;;;;4.60;2.50;;;;;;;20.41;34.25;96506.13;5131194;27;20445;-69
2021/12/01 09:54:15;;;;;;;4.50;2.20;;;;;;;20.42;34.21;96509.63;5131737;27;20561;-72
2021/12/01 09:56:40;;;;;;;4.15;2.00;;;;;;;20.41;34.21;96511.50;5128938;27;20043;-68
2021/12/01 09:59:06;;;;;;;5.40;1.98;;;;;;;20.42;34.27;96504.28;5131975;27;20031;-69
2021/12/01 10:01:31;;;;;;;3.40;1.70;;;;;;;20.39;34.25;96513.63;5130597;27;20066;-69
2021/12/01 10:03:58;;;;;;;3.45;1.58;;;;;;;20.37;34.47;96521.13;5131301;27;20466;-69
2021/12/01 10:06:25;;;;;;;3.83;1.63;;;;;;;20.36;34.53;96522.22;5133346;27;20462;-70
2021/12/01 10:08:53;;;;;;;2.78;1.40;;;;;;;20.37;34.42;96531.88;5132821;27;20043;-69
2021/12/01 10:11:33;;;;;;;3.38;1.80;;;;;;;20.36;34.49;96524.09;5131537;27;20039;-68
2021/12/01 10:14:12;;;;;;;2.75;1.50;;;;;;;20.34;34.49;96528.91;5133396;27;20031;-68
2021/12/01 10:16:41;;;;;;;2.60;1.50;;;;;;;20.34;34.62;96521.66;5133247;28;20057;-69
2021/12/01 10:19:10;;;;;;;3.50;1.77;;;;;;;20.37;34.72;96542.63;5133116;28;20256;-69
2021/12/01 10:21:47;;;;;;;2.22;1.30;;;;;;;20.37;34.24;96523.81;5132761;27;20031;-69
2021/12/01 10:24:20;;;;;;;3.80;1.50;;;;;;;20.37;34.07;96526.50;5132546;27;20034;-68
2021/12/01 10:26:49;;;;;;;2.80;1.20;;;;;;;20.37;33.82;96525.72;5131206;27;20035;-70
2021/12/01 10:29:22;;;;;;;4.95;1.55;;;;;;;20.37;33.88;96528.41;5129413;27;20405;-69
2021/12/01 10:31:48;;;;;;;1.92;1.15;;;;;;;20.39;33.69;96534.31;5130977;27;20416;-67
2021/12/01 10:34:30;;;;;;;3.10;1.25;;;;;;;20.40;33.67;96531.38;5131111;27;20035;-68
2021/12/01 10:37:23;;;;;;;4.90;1.20;;;;;;;20.38;33.90;96541.56;5109617;28;20505;-67
2021/12/01 10:40:01;;;;;;;3.38;1.42;;;;;;;20.33;34.13;96536.16;5121438;27;20034;-70
2021/12/01 10:42:26;;;;;;;2.95;1.40;;;;;;;20.32;34.03;96539.91;5132192;27;20433;-68
2021/12/01 10:45:00;;;;;;;1.85;1.23;;;;;;;20.36;33.81;96542.88;5131879;27;20037;-72
2021/12/01 10:47:37;;;;;;;2.53;1.05;;;;;;;20.37;33.84;96536.44;5132454;27;20029;-73
2021/12/01 10:50:04;;;;;;;3.22;1.05;;;;;;;20.39;33.35;96540.47;5112601;28;20026;-75
2021/12/01 10:52:39;;;;;;;4.47;1.02;;;;;;;20.40;33.34;96534.03;5131165;27;20028;-75
2021/12/01 10:55:11;;;;;;;2.08;1.17;;;;;;;20.40;32.90;96535.94;5132838;27;20384;-69
2021/12/01 10:57:58;;;;;;;3.35;1.42;;;;;;;20.45;33.20;96552.06;5130115;27;20118;-69
2021/12/01 11:00:26;;;;;;;2.70;1.15;;;;;;;20.50;32.51;96546.75;5131900;27;20113;-67
2021/12/01 11:02:53;;;;;;;4.78;0.90;;;;;;;20.61;32.71;96558.38;5131534;27;20031;-69
2021/12/01 11:05:26;;;;;;;2.22;1.10;;;;;;;20.72;32.69;96554.66;5129881;28;20031;-68
2021/12/01 11:07:52;;;;;;;4.03;1.00;;;;;;;20.81;32.01;96551.50;5132974;27;20035;-66
2021/12/01 11:10:20;;;;;;;1.77;0.75;;;;;;;20.93;31.89;96549.44;5131894;27;20031;-69
2021/12/01 11:12:54;;;;;;;2.45;1.30;;;;;;;21.06;32.48;96545.44;5136196;27;20047;-72
2021/12/01 11:15:23;;;;;;;5.72;1.00;;;;;;;21.19;32.18;96557.63;5133196;28;20126;-71
2021/12/01 11:17:50;;;;;;;3.00;1.08;;;;;;;21.29;32.20;96563.03;5149039;27;20449;-67
2021/12/01 11:20:52;;;;;;;5.38;1.30;;;;;;;20.80;31.77;96566.03;5149132;27;20092;-62
2021/12/01 11:23:40;;;;;;;6.22;1.25;;;;;;;19.99;32.15;96570.53;5051519;28;20041;-62
2021/12/01 11:26:11;;;;;;;4.55;1.20;;;;;;;19.42;33.12;96569.88;5056566;28;20182;-63
2021/12/01 11:28:44;;;;;;;;;;;;;;;18.99;33.15;96559.75;5054962;28;20040;-64
2021/12/01 11:31:18;;;;;;;2.72;0.90;;;;;;;18.74;33.21;96561.00;5054155;28;19912;-63
2021/12/01 11:33:44;;;;;;;4.05;0.95;;;;;;;18.60;33.46;96573.13;5053220;28;20501;-62
2021/12/01 11:36:13;;;;;;;2.45;1.05;;;;;;;18.56;33.22;96559.41;5053108;28;20411;-61
2021/12/01 11:38:39;;;;;;;5.15;1.70;;;;;;;18.46;33.17;96572.63;5120673;27;20091;-63
2021/12/01 11:41:06;;;;;;;2.33;1.00;;;;;;;18.23;33.41;96582.47;5136745;27;20058;-62
2021/12/01 11:43:35;;;;;;;2.97;0.75;;;;;;;18.08;33.63;96574.19;5136383;27;20038;-63